Time;durP1;ratioP1;P1;durP2;ratioP2;P2;SDS_P1;SDS_P2;PMS_P1;PMS_P2;Temp;Humidity;BMP_temperature;BMP_pressure;BME280_temperature;BME280_humidity;BME280_pressure;Samples;Min_cycle;Max_cycle;Signal;HPM_P1;HPM_P2
2022/01/06 00:01:20;;;;;;;5.47;2.30;;;;;;;1.57;100.00;97837.16;4091685;28;20442;-72
2022/01/06 00:03:23;;;;;;;4.68;2.38;;;;;;;1.59;100.00;97834.88;4091195;28;20048;-72
2022/01/06 00:05:24;;;;;;;10.73;2.90;;;;;;;1.61;100.00;97834.53;4094239;28;20315;-72
2022/01/06 00:07:24;;;;;;;9.70;2.20;;;;;;;1.62;100.00;97844.31;4105206;28;20147;-72
2022/01/06 00:09:25;;;;;;;6.65;2.40;;;;;;;1.67;100.00;97844.91;4096762;28;20479;-72
2022/01/06 00:11:25;;;;;;;7.50;1.98;;;;;;;1.73;100.00;97850.16;4091871;28;20140;-72
2022/01/06 00:13:36;;;;;;;5.05;2.10;;;;;;;1.71;99.92;97855.94;4090404;28;20475;-72
2022/01/06 00:18:11;;;;;;;6.00;2.08;;;;;;;1.65;100.00;97874.44;4088757;28;20133;-72
2022/01/06 00:24:42;;;;;;;7.20;2.10;;;;;;;1.63;100.00;97873.97;4088490;28;20046;-72
2022/01/06 00:26:47;;;;;;;4.85;2.20;;;;;;;1.56;100.00;97872.91;4088931;28;20479;-72
2022/01/06 00:28:47;;;;;;;6.30;2.20;;;;;;;1.58;100.00;97882.38;4094912;28;20051;-72
2022/01/06 00:30:48;;;;;;;5.65;2.05;;;;;;;1.51;100.00;97887.56;4094909;28;20200;-72
2022/01/06 00:32:48;;;;;;;6.03;1.95;;;;;;;1.50;100.00;97893.34;4088243;28;20055;-72
2022/01/06 00:34:48;;;;;;;5.32;1.85;;;;;;;1.55;100.00;97882.22;4091031;28;20192;-72
2022/01/06 00:36:49;;;;;;;5.15;1.85;;;;;;;1.58;100.00;97887.84;4088033;28;20550;-72
2022/01/06 00:38:50;;;;;;;7.93;1.83;;;;;;;1.45;100.00;97888.88;4088446;28;20047;-72
2022/01/06 00:40:50;;;;;;;5.05;1.83;;;;;;;1.33;100.00;97897.00;4088085;28;20079;-72
2022/01/06 00:42:51;;;;;;;3.83;1.73;;;;;;;1.26;100.00;97897.53;4088735;28;20510;-72
2022/01/06 00:44:51;;;;;;;3.50;1.30;;;;;;;1.10;100.00;97899.22;4088509;28;20097;-72
2022/01/06 00:46:52;;;;;;;3.83;1.73;;;;;;;1.02;100.00;97892.69;4092621;28;20475;-72
2022/01/06 00:48:53;;;;;;;3.83;1.60;;;;;;;0.95;100.00;97897.06;4088757;28;20207;-72
2022/01/06 00:50:53;;;;;;;4.95;1.58;;;;;;;0.89;100.00;97895.66;4088634;28;20058;-72
2022/01/06 00:52:57;;;;;;;6.18;1.70;;;;;;;0.79;100.00;97889.47;4092286;28;20134;-72
2022/01/06 00:55:00;;;;;;;2.80;1.58;;;;;;;0.82;100.00;97890.72;4089209;28;20471;-72
2022/01/06 00:57:00;;;;;;;3.45;1.70;;;;;;;0.84;100.00;97897.44;4087438;28;20053;-72
2022/01/06 00:59:00;;;;;;;3.17;1.40;;;;;;;0.82;100.00;97896.97;4089113;28;20549;-72
2022/01/06 01:01:01;;;;;;;5.60;1.80;;;;;;;0.82;100.00;97898.88;4088564;28;20054;-72
2022/01/06 01:03:01;;;;;;;4.95;1.83;;;;;;;0.85;100.00;97895.53;4088425;28;20337;-72
2022/01/06 01:05:03;;;;;;;3.03;1.60;;;;;;;0.85;100.00;97892.81;4088574;28;20047;-72
2022/01/06 01:07:03;;;;;;;5.00;2.08;;;;;;;0.90;100.00;97898.03;4087272;28;20075;-72
2022/01/06 01:09:04;;;;;;;5.28;2.10;;;;;;;0.86;100.00;97908.00;4089491;28;20097;-72
2022/01/06 01:11:08;;;;;;;10.82;2.53;;;;;;;0.86;100.00;97907.22;4089943;28;20045;-72
2022/01/06 01:13:13;;;;;;;7.60;2.63;;;;;;;0.89;100.00;97904.63;4088519;28;20113;-72
2022/01/06 01:15:19;;;;;;;6.60;2.10;;;;;;;0.86;100.00;97912.66;4088855;28;20063;-72
2022/01/06 01:17:20;;;;;;;3.90;2.03;;;;;;;0.87;100.00;97909.59;4087857;28;20101;-72
2022/01/06 01:19:20;;;;;;;4.03;2.00;;;;;;;0.88;100.00;97913.91;4090867;28;20055;-72
2022/01/06 01:21:22;;;;;;;7.88;2.13;;;;;;;0.94;100.00;97918.06;4098342;28;20048;-72
2022/01/06 01:23:22;;;;;;;7.45;2.72;;;;;;;1.06;100.00;97914.63;4090637;28;20486;-72
2022/01/06 01:25:23;;;;;;;8.55;2.00;;;;;;;1.10;100.00;97915.56;4088829;28;20039;-72
2022/01/06 01:27:23;;;;;;;5.68;1.88;;;;;;;1.16;100.00;97925.16;4088860;28;20047;-72
2022/01/06 01:29:24;;;;;;;5.78;1.80;;;;;;;1.25;100.00;97930.56;4088300;28;20132;-72
2022/01/06 01:31:27;;;;;;;14.20;2.25;;;;;;;1.24;100.00;97929.78;4087641;28;20093;-72
2022/01/06 01:33:29;;;;;;;5.05;1.88;;;;;;;1.29;99.35;97924.09;4088593;28;20313;-72
2022/01/06 01:35:32;;;;;;;10.95;2.50;;;;;;;1.35;98.52;97925.50;4088864;28;20079;-72
2022/01/06 01:37:34;;;;;;;7.47;1.90;;;;;;;1.33;97.74;97929.72;4087163;28;20056;-72
2022/01/06 01:39:34;;;;;;;6.30;2.40;;;;;;;1.43;96.69;97923.88;4088437;28;20501;-72
2022/01/06 01:41:35;;;;;;;7.30;2.00;;;;;;;1.41;96.84;97928.84;4088315;28;20130;-72
2022/01/06 01:43:36;;;;;;;8.25;1.95;;;;;;;1.37;97.65;97941.53;4087928;28;20101;-72
2022/01/06 01:45:45;;;;;;;4.45;2.28;;;;;;;1.38;97.20;97932.22;4088855;28;20385;-72
2022/01/06 01:47:45;;;;;;;6.05;1.85;;;;;;;1.34;97.15;97923.91;4092949;28;20405;-72
2022/01/06 01:49:55;;;;;;;7.85;1.80;;;;;;;1.37;97.44;97945.06;4089184;28;20461;-72
2022/01/06 01:51:56;;;;;;;6.28;2.00;;;;;;;1.38;97.36;97941.19;4091267;28;20044;-72
2022/01/06 01:53:56;;;;;;;4.72;1.90;;;;;;;1.38;96.99;97935.75;4096120;28;20495;-72
2022/01/06 01:55:57;;;;;;;6.13;2.30;;;;;;;1.40;96.20;97952.56;4092782;28;20525;-72
2022/01/06 01:57:57;;;;;;;8.50;2.33;;;;;;;1.47;95.78;97938.41;4093509;28;20294;-72
2022/01/06 01:59:58;;;;;;;7.00;1.65;;;;;;;1.46;95.26;97941.47;4092900;28;20542;-72
2022/01/06 02:01:58;;;;;;;8.15;2.20;;;;;;;1.43;96.43;97942.94;4093623;28;20047;-72
2022/01/06 02:03:58;;;;;;;10.45;1.98;;;;;;;1.43;95.92;97944.88;4093935;28;20043;-72
2022/01/06 02:05:59;;;;;;;9.88;2.20;;;;;;;1.46;94.76;97947.72;4145955;28;20045;-72
2022/01/06 02:08:00;;;;;;;6.80;1.80;;;;;;;1.42;95.50;97933.19;4093057;28;20374;-72
2022/01/06 02:10:03;;;;;;;5.80;1.50;;;;;;;1.34;95.65;97944.94;4101729;28;20035;-72
2022/01/06 02:12:04;;;;;;;5.18;1.50;;;;;;;1.28;94.93;97962.59;4093835;28;20551;-72
2022/01/06 02:14:06;;;;;;;8.13;2.22;;;;;;;1.24;95.55;97957.03;4096948;28;20066;-72
2022/01/06 02:16:06;;;;;;;3.90;2.45;;;;;;;1.25;94.61;97964.06;4093441;28;20047;-72
2022/01/06 02:18:06;;;;;;;6.40;1.70;;;;;;;1.21;94.34;97945.97;4092798;28;20048;-72
2022/01/06 02:20:10;;;;;;;3.38;1.67;;;;;;;1.22;94.01;97958.44;4091628;28;20035;-72
2022/01/06 02:22:10;;;;;;;2.95;1.48;;;;;;;1.27;93.15;97952.81;4093532;28;20043;-72
2022/01/06 02:24:10;;;;;;;8.23;1.70;;;;;;;1.23;93.73;97954.59;4093241;28;20041;-72
2022/01/06 02:26:11;;;;;;;7.43;1.80;;;;;;;1.22;93.52;97953.81;4094010;28;20062;-72
2022/01/06 02:28:12;;;;;;;7.53;1.60;;;;;;;1.19;93.80;97957.19;4092165;28;20039;-72
2022/01/06 02:30:12;;;;;;;6.55;1.85;;;;;;;1.19;93.51;97951.75;4093518;28;20081;-72
2022/01/06 02:32:16;;;;;;;12.07;2.92;;;;;;;1.21;93.62;97963.09;4092965;28;20038;-72
2022/01/06 02:34:16;;;;;;;6.60;1.58;;;;;;;1.19;94.55;97950.94;4092566;28;20410;-72
2022/01/06 02:36:16;;;;;;;9.25;2.13;;;;;;;1.21;94.11;97954.94;4092959;28;20054;-72
2022/01/06 02:38:17;;;;;;;4.97;1.90;;;;;;;1.26;93.16;97964.84;4092614;28;20035;-72
2022/01/06 02:40:26;;;;;;;7.70;1.83;;;;;;;1.32;92.02;97958.88;4094770;28;20070;-72
2022/01/06 02:42:28;;;;;;;4.97;1.80;;;;;;;1.39;92.03;97958.34;4095818;28;20399;-72
2022/01/06 02:44:29;;;;;;;7.57;1.88;;;;;;;1.36;92.71;97961.75;4093510;28;20043;-72
2022/01/06 02:46:29;;;;;;;9.40;1.70;;;;;;;1.32;93.58;97969.75;4092151;28;20445;-72
2022/01/06 02:48:30;;;;;;;9.45;2.58;;;;;;;1.34;92.22;97973.00;4092578;28;20139;-72
2022/01/06 02:50:31;;;;;;;5.60;1.90;;;;;;;1.47;91.29;97976.56;4093983;28;20053;-72
2022/01/06 02:52:31;;;;;;;14.60;2.75;;;;;;;1.47;91.38;97981.22;4095111;28;20039;-72
2022/01/06 02:54:32;;;;;;;7.68;3.03;;;;;;;1.45;91.63;97975.31;4093037;28;20458;-72
2022/01/06 02:56:33;;;;;;;11.30;2.45;;;;;;;1.49;92.07;97984.44;4092187;28;20058;-72
2022/01/06 02:58:33;;;;;;;10.23;3.38;;;;;;;1.48;93.83;97983.63;4093205;28;20411;-72
2022/01/06 03:00:37;;;;;;;6.70;2.78;;;;;;;1.39;96.28;97985.59;4092087;28;20047;-72
2022/01/06 03:02:38;;;;;;;10.48;2.65;;;;;;;1.37;96.03;97985.16;4092210;28;20055;-72
2022/01/06 03:04:38;;;;;;;8.05;2.55;;;;;;;1.30;97.32;97996.56;4090412;28;20046;-72
2022/01/06 03:06:40;;;;;;;12.90;2.78;;;;;;;1.23;97.04;98003.66;4088896;28;20093;-72
2022/01/06 03:08:40;;;;;;;9.40;2.70;;;;;;;1.23;97.17;98004.44;4093019;28;20081;-72
2022/01/06 03:10:43;;;;;;;5.93;2.42;;;;;;;1.31;96.59;98003.59;4094794;28;20079;-72
2022/01/06 03:12:45;;;;;;;10.10;3.03;;;;;;;1.31;96.96;98016.44;4096472;28;20043;-72
2022/01/06 03:14:46;;;;;;;7.95;2.92;;;;;;;1.28;96.44;98011.66;4088842;28;20042;-72
2022/01/06 03:16:46;;;;;;;9.43;2.78;;;;;;;1.32;95.85;98007.13;4089893;28;20398;-72
2022/01/06 03:18:47;;;;;;;7.25;2.90;;;;;;;1.37;94.39;98010.47;4089860;28;20055;-72
2022/01/06 03:20:47;;;;;;;8.23;2.25;;;;;;;1.41;94.17;98018.81;4088693;28;20581;-72
2022/01/06 03:22:48;;;;;;;5.97;2.20;;;;;;;1.38;94.28;98014.00;4090374;28;20039;-72
2022/01/06 03:24:48;;;;;;;3.83;1.92;;;;;;;1.40;94.41;98030.81;4091626;28;20475;-72
2022/01/06 03:26:48;;;;;;;7.95;2.03;;;;;;;1.44;94.14;98030.97;4088850;28;20039;-72
2022/01/06 03:28:49;;;;;;;9.48;2.15;;;;;;;1.47;93.31;98028.38;4089384;28;20047;-72
2022/01/06 03:30:49;;;;;;;7.93;2.20;;;;;;;1.47;93.30;98025.66;4089856;28;20039;-72
2022/01/06 03:32:51;;;;;;;6.35;2.05;;;;;;;1.43;93.45;98030.19;4089275;28;20578;-72
2022/01/06 03:34:52;;;;;;;10.37;2.10;;;;;;;1.48;93.25;98035.44;4095564;28;20192;-72
2022/01/06 03:36:52;;;;;;;12.52;2.30;;;;;;;1.38;94.13;98044.78;4089618;28;20395;-72
2022/01/06 03:38:53;;;;;;;10.93;2.40;;;;;;;1.32;94.73;98026.22;4089156;28;20043;-72
2022/01/06 03:40:53;;;;;;;11.23;2.38;;;;;;;1.36;94.44;98038.88;4090093;28;20479;-72
2022/01/06 03:42:53;;;;;;;9.23;2.28;;;;;;;1.33;95.48;98044.97;4089270;28;20517;-72
2022/01/06 03:44:55;;;;;;;7.30;1.83;;;;;;;1.25;96.46;98034.13;4089208;28;20618;-72
2022/01/06 03:46:55;;;;;;;9.60;3.47;;;;;;;1.09;98.78;98051.00;4089327;28;20108;-72
2022/01/06 03:48:56;;;;;;;9.75;2.03;;;;;;;1.03;99.59;98051.50;4089327;28;20467;-72
2022/01/06 03:50:56;;;;;;;12.77;2.92;;;;;;;1.01;100.00;98053.75;4090353;28;20043;-72
2022/01/06 03:52:57;;;;;;;5.78;1.83;;;;;;;0.99;100.00;98062.25;4089273;28;20086;-72
2022/01/06 03:54:57;;;;;;;12.90;2.50;;;;;;;1.02;99.28;98058.88;4091190;28;20035;-72
2022/01/06 03:56:59;;;;;;;9.07;1.92;;;;;;;1.09;98.74;98066.56;4089478;28;20058;-72
2022/01/06 03:58:59;;;;;;;6.03;1.80;;;;;;;1.17;97.79;98070.38;4091159;28;20434;-72
2022/01/06 04:00:59;;;;;;;7.53;2.60;;;;;;;1.17;97.21;98073.09;4089491;28;20057;-72
2022/01/06 04:03:00;;;;;;;11.15;2.15;;;;;;;1.13;97.45;98070.22;4091432;28;20043;-72
2022/01/06 04:05:02;;;;;;;9.25;2.92;;;;;;;1.18;97.62;98077.44;4090584;28;20552;-72
2022/01/06 04:07:03;;;;;;;7.75;2.05;;;;;;;1.17;98.25;98082.09;4088185;28;20039;-72
2022/01/06 04:09:03;;;;;;;8.50;2.53;;;;;;;1.24;97.81;98076.09;4088577;28;20047;-72
2022/01/06 04:11:04;;;;;;;9.05;2.70;;;;;;;1.23;98.92;98086.22;4093299;28;20149;-72
2022/01/06 04:13:04;;;;;;;7.35;2.10;;;;;;;1.20;98.70;98084.16;4088290;28;20126;-72
2022/01/06 04:15:09;;;;;;;7.80;2.70;;;;;;;1.21;98.22;98093.13;4090487;28;20485;-72
2022/01/06 04:17:10;;;;;;;8.30;2.63;;;;;;;1.19;98.69;98098.91;4088630;28;20407;-72
2022/01/06 04:19:10;;;;;;;6.38;2.70;;;;;;;1.19;98.20;98103.56;4089332;28;20211;-72
2022/01/06 04:21:11;;;;;;;8.90;2.75;;;;;;;1.15;98.80;98124.38;4088206;28;20051;-72
2022/01/06 04:23:11;;;;;;;8.98;2.40;;;;;;;1.13;98.81;98122.78;4089664;28;20085;-72
2022/01/06 04:25:12;;;;;;;8.75;2.60;;;;;;;1.16;98.52;98129.53;4091468;28;20055;-72
2022/01/06 04:27:12;;;;;;;10.75;3.13;;;;;;;1.16;98.69;98137.72;4087024;28;20046;-72
2022/01/06 04:29:13;;;;;;;6.82;1.95;;;;;;;1.08;98.74;98152.94;4089407;28;20047;-72
2022/01/06 04:31:13;;;;;;;8.80;2.65;;;;;;;0.91;99.94;98146.72;4088497;28;20050;-72
2022/01/06 04:33:13;;;;;;;6.68;2.33;;;;;;;0.83;100.00;98148.34;4088695;28;20575;-72
2022/01/06 04:35:14;;;;;;;7.07;2.10;;;;;;;0.72;100.00;98153.28;4088802;28;20105;-72
2022/01/06 04:37:14;;;;;;;6.95;2.13;;;;;;;0.77;100.00;98164.03;4088491;28;20055;-72
2022/01/06 04:39:15;;;;;;;6.20;1.80;;;;;;;0.68;100.00;98165.16;4088619;28;20116;-72
2022/01/06 04:41:15;;;;;;;9.48;1.98;;;;;;;0.61;100.00;98171.09;4088574;28;20062;-72
2022/01/06 04:43:17;;;;;;;6.88;2.13;;;;;;;0.55;100.00;98178.59;4089608;28;20062;-72
2022/01/06 04:45:17;;;;;;;5.40;1.73;;;;;;;0.59;100.00;98186.94;4095453;28;20487;-72
2022/01/06 04:47:18;;;;;;;6.68;2.47;;;;;;;0.58;100.00;98179.91;4088837;28;20043;-72
2022/01/06 04:49:18;;;;;;;2.78;1.35;;;;;;;0.50;100.00;98183.44;4088796;28;20059;-72
2022/01/06 04:51:18;;;;;;;2.42;1.13;;;;;;;0.48;99.31;98191.88;4088751;28;20078;-72
2022/01/06 04:53:19;;;;;;;1.80;1.35;;;;;;;0.46;96.14;98199.56;4088722;28;20411;-72
2022/01/06 04:55:19;;;;;;;3.67;1.15;;;;;;;0.34;91.65;98196.69;4088722;28;20216;-72
2022/01/06 04:57:19;;;;;;;2.00;0.90;;;;;;;0.25;90.80;98204.84;4089031;28;20051;-72
2022/01/06 04:59:20;;;;;;;2.40;1.10;;;;;;;0.16;89.97;98214.06;4090333;28;20054;-72
2022/01/06 05:01:20;;;;;;;1.08;0.80;;;;;;;0.05;88.26;98218.22;4090770;28;20039;-72
2022/01/06 05:03:21;;;;;;;2.38;1.20;;;;;;;0.05;89.40;98224.44;4093975;28;20051;-72
2022/01/06 05:05:21;;;;;;;1.35;0.88;;;;;;;-0.03;90.56;98226.03;4088063;28;20131;-72
2022/01/06 05:07:21;;;;;;;2.13;0.80;;;;;;;-0.10;91.58;98228.38;4088566;28;20475;-72
2022/01/06 05:09:22;;;;;;;2.55;1.13;;;;;;;-0.14;91.20;98234.78;4093012;28;20039;-72
2022/01/06 05:11:22;;;;;;;3.78;1.10;;;;;;;-0.21;88.61;98231.72;4095035;28;20109;-72
2022/01/06 05:13:23;;;;;;;1.27;1.00;;;;;;;-0.23;87.97;98231.22;4092140;28;20396;-72
2022/01/06 05:15:23;;;;;;;2.17;1.10;;;;;;;-0.26;86.97;98243.50;4088626;28;20365;-72
2022/01/06 05:17:24;;;;;;;1.27;1.00;;;;;;;-0.34;87.32;98236.91;4088173;28;20051;-72
2022/01/06 05:19:24;;;;;;;2.67;1.02;;;;;;;-0.37;87.22;98256.59;4087598;28;20541;-72
2022/01/06 05:21:29;;;;;;;1.63;1.15;;;;;;;-0.45;87.72;98249.19;4088416;28;20082;-72
2022/01/06 05:23:29;;;;;;;1.48;1.10;;;;;;;-0.48;87.71;98257.97;4088806;28;20043;-72
2022/01/06 05:25:31;;;;;;;1.70;1.10;;;;;;;-0.53;88.28;98260.81;4088271;28;20051;-72
2022/01/06 05:27:31;;;;;;;3.75;1.10;;;;;;;-0.61;87.09;98254.19;4086195;28;20497;-72
2022/01/06 05:29:32;;;;;;;1.80;1.20;;;;;;;-0.64;87.86;98267.63;4088419;28;20189;-72
2022/01/06 05:31:32;;;;;;;3.53;1.00;;;;;;;-0.68;88.37;98272.06;4096165;28;20165;-72
2022/01/06 05:33:33;;;;;;;3.40;1.00;;;;;;;-0.70;88.05;98282.44;4097245;28;20048;-72
2022/01/06 05:35:33;;;;;;;2.13;1.05;;;;;;;-0.74;89.06;98286.91;4092196;28;20134;-72
2022/01/06 05:37:33;;;;;;;2.13;1.20;;;;;;;-0.82;89.69;98298.50;4089503;28;20073;-72
2022/01/06 05:39:34;;;;;;;2.42;0.90;;;;;;;-0.81;89.68;98302.81;4088564;28;20051;-72
2022/01/06 05:41:34;;;;;;;1.00;0.75;;;;;;;-0.86;90.82;98299.09;4094612;28;20506;-72
2022/01/06 05:43:35;;;;;;;1.42;0.93;;;;;;;-0.83;90.15;98308.53;4094400;28;20097;-72
2022/01/06 05:45:35;;;;;;;1.13;0.90;;;;;;;-0.91;90.60;98304.66;4089243;28;20046;-72
2022/01/06 05:47:36;;;;;;;1.95;1.30;;;;;;;-0.95;90.92;98313.72;4087766;28;20043;-72
2022/01/06 05:49:36;;;;;;;7.78;4.35;;;;;;;-1.02;91.71;98318.75;4088928;28;20042;-72
2022/01/06 05:51:37;;;;;;;2.55;1.40;;;;;;;-1.02;92.08;98322.28;4088643;28;20052;-72
2022/01/06 05:53:37;;;;;;;3.72;1.35;;;;;;;-1.03;91.63;98328.81;4089669;28;20066;-72
2022/01/06 05:55:38;;;;;;;1.73;1.02;;;;;;;-1.05;91.87;98332.97;4087946;28;20147;-72
2022/01/06 05:57:38;;;;;;;4.90;1.45;;;;;;;-1.03;90.60;98336.97;4091974;28;20118;-72
2022/01/06 05:59:39;;;;;;;6.38;1.15;;;;;;;-1.00;88.88;98332.81;4088969;28;20051;-72
2022/01/06 06:01:39;;;;;;;2.58;1.00;;;;;;;-1.01;89.77;98344.81;4092951;28;20042;-72
2022/01/06 06:03:40;;;;;;;2.03;0.90;;;;;;;-1.02;89.35;98354.88;4098774;28;20330;-72
2022/01/06 06:05:41;;;;;;;3.95;1.00;;;;;;;-1.03;90.62;98360.59;4091609;28;20554;-72
2022/01/06 06:07:42;;;;;;;2.72;1.20;;;;;;;-1.06;90.15;98367.47;4092289;28;20067;-72
2022/01/06 06:09:42;;;;;;;3.20;1.05;;;;;;;-1.01;89.12;98369.25;4088633;28;20104;-72
2022/01/06 06:11:43;;;;;;;1.20;1.10;;;;;;;-1.07;90.18;98381.34;4089941;28;20374;-72
2022/01/06 06:13:43;;;;;;;2.13;0.90;;;;;;;-0.99;89.13;98377.91;4090048;28;20051;-72
2022/01/06 06:15:44;;;;;;;1.52;1.40;;;;;;;-1.08;90.20;98385.94;4088394;28;20035;-72
2022/01/06 06:17:44;;;;;;;2.17;0.93;;;;;;;-1.14;89.69;98385.28;4090506;28;20138;-72
2022/01/06 06:19:44;;;;;;;1.98;1.20;;;;;;;-1.13;89.98;98388.78;4088806;28;20116;-72
2022/01/06 06:21:45;;;;;;;3.50;1.08;;;;;;;-1.14;89.81;98392.63;4088400;28;20189;-72
2022/01/06 06:23:45;;;;;;;1.00;0.90;;;;;;;-1.19;90.43;98392.72;4091764;28;20372;-72
2022/01/06 06:25:45;;;;;;;3.05;1.27;;;;;;;-1.28;91.09;98399.94;4089421;28;20049;-72
2022/01/06 06:27:46;;;;;;;1.27;1.10;;;;;;;-1.30;90.83;98408.41;4087928;28;20047;-72
2022/01/06 06:29:46;;;;;;;2.47;1.30;;;;;;;-1.34;92.03;98407.38;4090130;28;20047;-72
2022/01/06 06:31:47;;;;;;;2.92;1.08;;;;;;;-1.40;92.40;98419.47;4088282;28;20068;-72
2022/01/06 06:33:47;;;;;;;3.53;1.08;;;;;;;-1.45;92.89;98423.06;4089992;28;20054;-72
2022/01/06 06:35:48;;;;;;;3.25;1.23;;;;;;;-1.43;91.86;98442.56;4090157;28;20044;-72
2022/01/06 06:37:48;;;;;;;1.83;1.10;;;;;;;-1.40;90.33;98434.94;4088715;28;20577;-72
2022/01/06 06:39:49;;;;;;;3.47;1.10;;;;;;;-1.38;90.40;98438.16;4091991;28;20130;-72
2022/01/06 06:41:49;;;;;;;1.98;1.13;;;;;;;-1.42;90.75;98449.59;4092937;28;20039;-72
2022/01/06 06:43:50;;;;;;;3.70;1.20;;;;;;;-1.39;90.89;98442.78;4098574;28;20039;-72
2022/01/06 06:45:50;;;;;;;4.93;1.45;;;;;;;-1.40;90.66;98445.81;4092692;28;20075;-72
2022/01/06 06:47:51;;;;;;;4.05;1.13;;;;;;;-1.48;91.17;98439.97;4092344;28;20047;-72
2022/01/06 06:49:52;;;;;;;1.65;1.17;;;;;;;-1.48;91.35;98437.25;4091967;28;20097;-72
2022/01/06 06:51:52;;;;;;;2.42;1.20;;;;;;;-1.43;90.61;98442.56;4095522;28;20038;-72
2022/01/06 06:53:53;;;;;;;9.35;4.28;;;;;;;-1.45;90.57;98443.97;4100362;28;20446;-72
2022/01/06 06:55:53;;;;;;;5.07;1.98;;;;;;;-1.48;90.81;98450.03;4091856;28;20043;-72
2022/01/06 06:57:54;;;;;;;2.75;2.00;;;;;;;-1.49;90.56;98448.38;4101509;28;20090;-72
2022/01/06 06:59:54;;;;;;;5.97;2.60;;;;;;;-1.51;91.00;98447.88;4096687;28;20043;-72
2022/01/06 07:01:54;;;;;;;3.88;2.80;;;;;;;-1.53;92.11;98453.63;4092369;28;20445;-72
2022/01/06 07:03:55;;;;;;;4.82;2.80;;;;;;;-1.56;92.56;98459.66;4091062;28;20405;-72
2022/01/06 07:05:55;;;;;;;5.45;2.78;;;;;;;-1.62;91.40;98454.59;4089368;28;20372;-72
2022/01/06 07:07:56;;;;;;;10.60;4.38;;;;;;;-1.58;91.20;98459.13;4088488;28;20596;-72
2022/01/06 07:09:56;;;;;;;5.85;2.67;;;;;;;-1.59;90.63;98457.53;4096842;28;20518;-72
2022/01/06 07:11:57;;;;;;;4.70;1.75;;;;;;;-1.58;90.17;98469.16;4094207;28;20093;-72
2022/01/06 07:13:57;;;;;;;2.58;1.27;;;;;;;-1.57;90.72;98468.06;4090440;28;20094;-72
2022/01/06 07:15:57;;;;;;;1.95;1.75;;;;;;;-1.55;90.69;98476.75;4099464;28;20042;-72
2022/01/06 07:17:58;;;;;;;2.78;1.45;;;;;;;-1.56;90.16;98481.34;4096468;28;20499;-72
2022/01/06 07:19:58;;;;;;;3.38;1.58;;;;;;;-1.58;90.16;98474.59;4089775;28;20463;-72
2022/01/06 07:21:58;;;;;;;1.65;1.15;;;;;;;-1.50;88.42;98482.06;4089262;28;20043;-72
2022/01/06 07:23:59;;;;;;;2.28;1.33;;;;;;;-1.48;89.34;98482.59;4090012;28;20062;-72
2022/01/06 07:25:59;;;;;;;1.90;1.33;;;;;;;-1.46;89.28;98485.78;4088938;28;20625;-72
2022/01/06 07:28:00;;;;;;;1.52;1.00;;;;;;;-1.43;88.39;98499.56;4088961;28;20051;-72
2022/01/06 07:30:00;;;;;;;3.22;1.50;;;;;;;-1.38;88.53;98485.09;4090780;28;20053;-72
2022/01/06 07:32:01;;;;;;;3.22;1.60;;;;;;;-1.47;89.38;98492.34;4088877;28;20056;-72
2022/01/06 07:34:01;;;;;;;10.93;2.47;;;;;;;-1.44;89.05;98506.09;4092505;28;20039;-72
2022/01/06 07:36:01;;;;;;;4.20;1.80;;;;;;;-1.44;88.97;98499.88;4089114;28;20058;-72
2022/01/06 07:38:02;;;;;;;5.20;2.83;;;;;;;-1.42;88.61;98500.38;4088688;28;20096;-72
2022/01/06 07:40:06;;;;;;;2.75;2.50;;;;;;;-1.49;90.54;98508.09;4089550;28;20481;-72
2022/01/06 07:42:07;;;;;;;3.90;1.83;;;;;;;-1.50;89.72;98511.91;4089032;28;20043;-72
2022/01/06 07:44:07;;;;;;;5.53;2.95;;;;;;;-1.53;89.80;98513.31;4090138;28;20309;-72
2022/01/06 07:46:08;;;;;;;6.00;3.92;;;;;;;-1.48;89.58;98512.44;4090207;28;20032;-72
2022/01/06 07:48:16;;;;;;;3.33;1.73;;;;;;;-1.41;88.55;98515.53;4089043;28;20081;-72
2022/01/06 07:50:17;;;;;;;13.90;7.50;;;;;;;-1.45;88.88;98511.81;4089038;28;20039;-72
2022/01/06 07:52:18;;;;;;;5.07;3.08;;;;;;;-1.44;89.68;98519.66;4089092;28;20043;-72
2022/01/06 07:54:18;;;;;;;4.20;2.35;;;;;;;-1.47;89.77;98527.59;4089069;28;20038;-72
2022/01/06 07:56:18;;;;;;;4.55;3.08;;;;;;;-1.49;90.28;98525.19;4089814;28;20031;-72
2022/01/06 07:58:19;;;;;;;3.63;2.90;;;;;;;-1.52;91.66;98536.63;4088888;28;20035;-72
2022/01/06 08:00:20;;;;;;;3.05;1.40;;;;;;;-1.49;91.79;98541.47;4088719;28;20566;-72
2022/01/06 08:02:20;;;;;;;2.42;1.30;;;;;;;-1.41;92.71;98550.81;4090282;28;21030;-72
2022/01/06 08:04:21;;;;;;;2.70;1.30;;;;;;;-1.36;92.31;98553.47;4089411;28;20101;-72
2022/01/06 08:06:21;;;;;;;4.00;1.40;;;;;;;-1.42;92.74;98555.44;4091788;28;20111;-72
2022/01/06 08:08:21;;;;;;;2.83;1.60;;;;;;;-1.32;92.26;98557.19;4089220;28;20376;-72
2022/01/06 08:10:23;;;;;;;2.80;1.45;;;;;;;-1.34;92.46;98548.53;4093195;28;20204;-72
2022/01/06 08:12:23;;;;;;;2.35;1.60;;;;;;;-1.33;93.12;98555.56;4158324;28;20045;-72
2022/01/06 08:14:23;;;;;;;4.20;1.50;;;;;;;-1.31;94.24;98571.56;4089787;28;20048;-72
2022/01/06 08:16:24;;;;;;;2.95;1.48;;;;;;;-1.32;93.65;98569.97;4090066;28;20047;-72
2022/01/06 08:18:24;;;;;;;5.03;1.48;;;;;;;-1.33;94.94;98574.56;4088766;28;20448;-72
2022/01/06 08:20:25;;;;;;;3.30;1.92;;;;;;;-1.34;96.18;98570.25;4088721;28;20086;-72
2022/01/06 08:22:25;;;;;;;6.85;1.90;;;;;;;-1.37;96.26;98573.56;4094225;28;20113;-72
2022/01/06 08:24:26;;;;;;;6.07;1.92;;;;;;;-1.35;96.73;98587.63;4089223;28;20047;-72
2022/01/06 08:26:26;;;;;;;4.28;1.80;;;;;;;-1.37;97.31;98587.13;4088387;28;20040;-72
2022/01/06 08:28:27;;;;;;;3.13;1.67;;;;;;;-1.39;97.40;98573.06;4088584;28;20079;-72
2022/01/06 08:30:27;;;;;;;2.60;1.55;;;;;;;-1.36;97.64;98580.59;4091558;28;20299;-72
2022/01/06 08:32:27;;;;;;;3.63;2.00;;;;;;;-1.33;97.61;98579.19;4089310;28;20066;-72
2022/01/06 08:34:28;;;;;;;2.55;1.48;;;;;;;-1.29;97.03;98591.88;4088833;28;20043;-72
2022/01/06 08:36:28;;;;;;;5.45;1.85;;;;;;;-1.29;96.20;98585.66;4088968;28;20315;-72
2022/01/06 08:38:29;;;;;;;5.85;2.40;;;;;;;-1.27;96.73;98600.53;4087814;28;20483;-72
2022/01/06 08:40:31;;;;;;;4.93;1.90;;;;;;;-1.30;96.69;98589.47;4089150;28;20487;-72
2022/01/06 08:42:31;;;;;;;3.83;2.30;;;;;;;-1.27;96.48;98594.28;4088531;28;20039;-72
2022/01/06 08:44:31;;;;;;;5.30;2.90;;;;;;;-1.27;95.63;98595.09;4088520;28;20548;-72
2022/01/06 08:46:32;;;;;;;6.28;2.78;;;;;;;-1.23;94.38;98604.28;4088292;28;20471;-73
2022/01/06 08:48:32;;;;;;;6.53;2.47;;;;;;;-1.19;93.74;98601.75;4092484;28;20095;-72
2022/01/06 08:50:33;;;;;;;3.05;1.90;;;;;;;-1.19;93.20;98607.19;4090200;28;20089;-72
2022/01/06 08:52:35;;;;;;;6.07;3.28;;;;;;;-1.14;93.45;98613.34;4093989;28;20126;-72
2022/01/06 08:54:36;;;;;;;11.40;5.50;;;;;;;-1.10;93.22;98618.16;4091044;28;20137;-72
2022/01/06 08:56:36;;;;;;;8.52;4.55;;;;;;;-1.12;93.23;98610.31;4088667;28;20675;-72
2022/01/06 08:58:37;;;;;;;9.73;3.75;;;;;;;-1.11;94.18;98617.38;4090492;28;20129;-72
2022/01/06 09:00:39;;;;;;;5.57;2.58;;;;;;;-1.08;94.79;98624.09;4087549;28;20727;-72
2022/01/06 09:02:40;;;;;;;;;;;;;;;-1.04;95.00;98625.94;4089511;28;20487;-72
2022/01/06 09:04:40;;;;;;;4.65;1.80;;;;;;;-1.01;93.92;98629.94;4187096;28;19924;-72
2022/01/06 09:06:41;;;;;;;6.78;1.98;;;;;;;-0.99;93.93;98634.00;4090764;28;20389;-72
2022/01/06 09:08:41;;;;;;;6.18;1.83;;;;;;;-0.97;93.75;98644.56;4090815;28;20054;-72
2022/01/06 09:10:41;;;;;;;4.72;2.67;;;;;;;-0.96;93.08;98641.53;4091057;28;20038;-72
2022/01/06 09:12:42;;;;;;;4.38;2.47;;;;;;;-0.87;91.48;98639.75;4088392;28;20728;-72
2022/01/06 09:14:46;;;;;;;5.35;2.63;;;;;;;-0.77;91.36;98643.38;4089570;28;20039;-72
2022/01/06 09:16:46;;;;;;;3.22;1.45;;;;;;;-0.71;90.13;98643.00;4087821;28;20078;-72
2022/01/06 09:18:47;;;;;;;3.42;1.63;;;;;;;-0.72;90.14;98646.03;4088763;28;20446;-72
2022/01/06 09:20:47;;;;;;;3.53;1.73;;;;;;;-0.66;89.65;98653.78;4090645;28;20043;-72
2022/01/06 09:22:48;;;;;;;3.05;1.48;;;;;;;-0.65;91.03;98654.59;4088662;28;20047;-72
2022/01/06 09:24:49;;;;;;;3.15;1.70;;;;;;;-0.65;90.56;98651.88;4088400;28;20116;-72
2022/01/06 09:26:49;;;;;;;6.90;2.13;;;;;;;-0.70;90.46;98651.94;4086456;28;20035;-72
2022/01/06 09:28:50;;;;;;;6.05;1.90;;;;;;;-0.71;90.74;98667.44;4088859;28;20051;-72
2022/01/06 09:30:51;;;;;;;4.35;1.48;;;;;;;-0.66;90.62;98661.13;4088250;28;20294;-72
2022/01/06 09:32:53;;;;;;;4.13;1.50;;;;;;;-0.63;90.34;98657.81;4091762;28;20089;-72
2022/01/06 09:34:54;;;;;;;6.53;2.33;;;;;;;-0.59;89.79;98661.50;4088044;28;20043;-72
2022/01/06 09:36:54;;;;;;;3.42;2.03;;;;;;;-0.62;90.12;98657.50;4087440;28;20294;-72
2022/01/06 09:38:56;;;;;;;5.18;3.13;;;;;;;-0.51;89.20;98654.59;4091624;28;20418;-72